createdAt,value
2022-11-16T00:02:21.401Z,7.29
2022-11-16T00:07:27.632Z,8.25
2022-11-16T00:12:33.598Z,9.98
2022-11-16T00:17:39.838Z,7.63
2022-11-16T00:22:45.892Z,8.46
2022-11-16T00:27:53.140Z,7.80
2022-11-16T00:32:59.253Z,7.13
2022-11-16T00:38:05.454Z,6.74
2022-11-16T00:43:12.476Z,6.99
2022-11-16T00:48:18.635Z,6.42
2022-11-16T00:53:24.760Z,7.10
2022-11-16T00:58:31.329Z,7.13
2022-11-16T01:03:36.569Z,7.17
2022-11-16T01:08:43.306Z,6.46
2022-11-16T01:13:50.216Z,7.41
2022-11-16T01:18:56.501Z,7.34
2022-11-16T01:24:02.585Z,8.29
2022-11-16T01:29:09.479Z,6.35
2022-11-16T01:34:15.641Z,10.01
2022-11-16T01:39:21.810Z,7.41
2022-11-16T01:44:27.871Z,8.12
2022-11-16T01:49:34.049Z,8.40
2022-11-16T01:54:40.126Z,7.63
2022-11-16T01:59:46.315Z,8.16
2022-11-16T02:04:52.742Z,7.81
2022-11-16T02:09:58.913Z,6.96
2022-11-16T02:15:04.941Z,9.35
2022-11-16T02:20:11.185Z,9.10
2022-11-16T02:25:17.286Z,8.98
2022-11-16T02:30:23.444Z,6.83
2022-11-16T02:35:29.488Z,7.55
2022-11-16T02:40:35.657Z,7.01
2022-11-16T02:45:41.718Z,7.26
2022-11-16T02:50:48.060Z,6.93
2022-11-16T02:55:54.139Z,7.88
2022-11-16T03:01:00.356Z,8.96
2022-11-16T03:06:06.378Z,8.27
2022-11-16T03:11:12.543Z,7.79
2022-11-16T03:16:18.587Z,12.02
2022-11-16T03:21:24.747Z,9.39
2022-11-16T03:26:30.788Z,8.20
2022-11-16T03:31:37.095Z,7.96
2022-11-16T03:36:43.251Z,8.35
2022-11-16T03:41:49.839Z,7.81
2022-11-16T03:46:55.904Z,7.98
2022-11-16T03:52:02.141Z,8.48
2022-11-16T03:57:08.289Z,7.62
2022-11-16T04:02:14.497Z,8.99
2022-11-16T04:07:20.715Z,10.07
2022-11-16T04:12:26.746Z,8.49
2022-11-16T04:17:32.805Z,9.85
2022-11-16T04:22:39.397Z,8.26
2022-11-16T04:27:45.474Z,8.86
2022-11-16T04:32:51.756Z,9.82
2022-11-16T04:37:58.163Z,8.56
2022-11-16T04:43:04.415Z,11.65
2022-11-16T04:48:10.488Z,12.16
2022-11-16T04:53:16.750Z,10.73
2022-11-16T04:58:22.827Z,12.34
2022-11-16T05:03:29.149Z,11.63
2022-11-16T05:08:35.640Z,12.56
2022-11-16T05:13:41.940Z,13.59
2022-11-16T05:18:48.020Z,13.60
2022-11-16T05:23:54.238Z,13.25
2022-11-16T05:29:00.329Z,13.90
2022-11-16T05:34:06.462Z,15.84
2022-11-16T05:39:12.892Z,16.27
2022-11-16T05:44:19.063Z,16.29
2022-11-16T05:49:25.237Z,15.59
2022-11-16T05:54:31.411Z,20.43
2022-11-16T05:59:37.483Z,17.18
2022-11-16T06:04:43.674Z,20.23
2022-11-16T06:09:49.771Z,18.34
2022-11-16T06:14:55.928Z,17.42
2022-11-16T06:20:02.016Z,20.34
2022-11-16T06:25:08.636Z,18.78
2022-11-16T06:30:14.703Z,19.69
2022-11-16T06:35:21.151Z,21.05
2022-11-16T06:40:27.551Z,18.47
2022-11-16T06:45:33.894Z,21.04
2022-11-16T06:50:39.968Z,20.94
2022-11-16T06:55:46.150Z,19.82
2022-11-16T07:00:52.226Z,22.07
2022-11-16T07:05:58.396Z,21.01
2022-11-16T07:11:04.590Z,21.51
2022-11-16T07:16:10.860Z,22.46
2022-11-16T07:21:16.940Z,20.17
2022-11-16T07:26:23.112Z,20.48
2022-11-16T07:31:29.505Z,20.72
2022-11-16T07:36:35.685Z,21.77
2022-11-16T07:41:41.744Z,23.93
2022-11-16T07:46:49.238Z,20.89
2022-11-16T07:51:54.498Z,22.52
2022-11-16T07:57:01.265Z,23.63
2022-11-16T08:02:08.868Z,23.51
2022-11-16T08:07:15.455Z,23.45
2022-11-16T08:12:21.797Z,23.57
2022-11-16T08:17:28.389Z,23.32
2022-11-16T08:22:34.862Z,25.79
2022-11-16T08:27:41.608Z,24.28
2022-11-16T08:32:48.142Z,22.77
2022-11-16T08:37:54.855Z,22.80
2022-11-16T08:43:02.038Z,23.51
2022-11-16T08:48:09.402Z,23.48
2022-11-16T08:53:15.891Z,22.90
2022-11-16T08:58:22.447Z,23.74
2022-11-16T09:03:29.170Z,21.78
2022-11-16T09:08:36.021Z,23.24
2022-11-16T09:13:42.393Z,24.32
2022-11-16T09:18:49.099Z,26.40
2022-11-16T09:24:22.878Z,24.85
2022-11-16T09:29:29.085Z,22.63
2022-11-16T09:34:35.129Z,21.74
2022-11-16T09:39:41.581Z,21.14
2022-11-16T09:44:47.643Z,22.50
2022-11-16T09:49:58.199Z,20.78
2022-11-16T09:54:59.389Z,21.09
2022-11-16T10:00:05.500Z,21.24
2022-11-16T10:05:12.295Z,20.26
2022-11-16T10:10:18.458Z,20.41
2022-11-16T10:15:24.521Z,20.49
2022-11-16T10:20:31.321Z,19.85
2022-11-16T10:25:36.276Z,19.91
2022-11-16T10:30:42.443Z,19.44
2022-11-16T10:35:48.514Z,19.20
2022-11-16T10:40:54.695Z,20.09
2022-11-16T10:46:00.767Z,18.04
2022-11-16T10:51:07.290Z,19.26
2022-11-16T10:56:13.371Z,19.61
2022-11-16T11:01:19.695Z,18.18
2022-11-16T11:06:25.750Z,19.30
2022-11-16T11:11:31.901Z,20.61
2022-11-16T11:16:37.957Z,19.26
2022-11-16T11:21:44.087Z,18.17
2022-11-16T11:26:50.174Z,18.66
2022-11-16T11:31:56.343Z,18.47
2022-11-16T11:37:02.432Z,18.49
2022-11-16T11:42:08.613Z,18.37
2022-11-16T11:47:56.357Z,19.49
2022-11-16T11:52:20.738Z,18.17
2022-11-16T11:57:26.903Z,18.72
2022-11-16T12:02:33.176Z,18.00
2022-11-16T12:07:39.322Z,17.50
2022-11-16T12:12:45.346Z,18.18
2022-11-16T12:17:51.427Z,16.39
2022-11-16T12:23:02.579Z,16.36
2022-11-16T12:28:03.241Z,16.60
2022-11-16T12:33:09.386Z,17.60
2022-11-16T12:38:15.438Z,18.48
2022-11-16T12:43:21.628Z,18.22
2022-11-16T12:48:27.687Z,20.30
2022-11-16T12:53:34.145Z,19.45
2022-11-16T12:58:39.440Z,22.64
2022-11-16T13:03:45.556Z,24.10
2022-11-16T13:08:51.639Z,21.92
2022-11-16T13:13:58.049Z,22.52
2022-11-16T13:19:03.878Z,22.34
2022-11-16T13:24:10.029Z,23.52
2022-11-16T13:29:16.089Z,23.58
2022-11-16T13:34:22.351Z,23.18
2022-11-16T13:39:28.412Z,24.09
2022-11-16T13:44:34.555Z,25.94
2022-11-16T13:49:40.594Z,23.31
2022-11-16T13:54:47.137Z,25.72
2022-11-16T13:59:52.966Z,25.35
2022-11-16T14:04:59.567Z,25.39
2022-11-16T14:10:05.637Z,23.26
2022-11-16T14:15:11.908Z,24.76
2022-11-16T14:20:22.148Z,24.73
2022-11-16T14:25:23.605Z,23.09
2022-11-16T14:30:29.657Z,22.56
2022-11-16T14:35:35.785Z,23.03
2022-11-16T14:40:41.841Z,21.77
2022-11-16T14:45:47.970Z,20.11
2022-11-16T14:50:54.034Z,19.37
2022-11-16T14:56:00.364Z,19.03
2022-11-16T15:01:06.425Z,18.97
2022-11-16T15:06:12.695Z,20.40
2022-11-16T15:11:18.761Z,21.05
2022-11-16T15:16:24.916Z,21.18
2022-11-16T15:21:30.973Z,22.96
2022-11-16T15:26:37.108Z,23.36
2022-11-16T15:31:43.177Z,22.97
2022-11-16T15:36:49.459Z,20.85
2022-11-16T15:42:02.153Z,23.06
2022-11-16T15:48:08.902Z,26.14
2022-11-16T15:53:15.001Z,22.92
2022-11-16T15:58:21.317Z,24.15
2022-11-16T16:03:29.827Z,22.79
2022-11-16T16:08:33.412Z,18.07
2022-11-16T16:13:39.520Z,27.08
2022-11-16T16:18:45.649Z,21.05
2022-11-16T16:23:51.729Z,20.89
2022-11-16T16:28:58.336Z,19.32
2022-11-16T16:34:04.460Z,18.03
2022-11-16T16:39:10.669Z,17.13
2022-11-16T16:44:16.736Z,17.39
2022-11-16T16:49:22.960Z,15.54
2022-11-16T16:54:29.129Z,17.31
2022-11-16T16:59:35.417Z,16.42
2022-11-16T17:04:41.561Z,15.32
2022-11-16T17:09:47.719Z,13.01
2022-11-16T17:14:53.809Z,15.48
2022-11-16T17:20:00.415Z,14.23
2022-11-16T17:25:06.476Z,16.28
2022-11-16T17:30:12.653Z,15.17
2022-11-16T17:35:18.778Z,18.21
2022-11-16T17:40:25.083Z,14.68
2022-11-16T17:45:31.235Z,16.25
2022-11-16T17:50:37.427Z,16.35
2022-11-16T17:55:44.259Z,16.46
2022-11-16T18:00:50.546Z,15.55
2022-11-16T18:05:56.979Z,15.84
2022-11-16T18:11:03.267Z,17.06
2022-11-16T18:16:09.356Z,19.29
2022-11-16T18:21:20.375Z,16.01
2022-11-16T18:26:22.054Z,18.00
2022-11-16T18:31:28.308Z,15.95
2022-11-16T18:36:34.369Z,15.61
2022-11-16T18:41:40.591Z,17.26
2022-11-16T18:46:46.709Z,16.84
2022-11-16T18:51:53.023Z,17.60
2022-11-16T18:56:59.412Z,14.76
2022-11-16T19:02:05.632Z,14.59
2022-11-16T19:07:12.558Z,17.79
2022-11-16T19:12:18.709Z,16.01
2022-11-16T19:17:25.101Z,15.35
2022-11-16T19:22:31.326Z,13.03
2022-11-16T19:27:37.416Z,13.33
2022-11-16T19:32:43.640Z,16.49
2022-11-16T19:37:49.755Z,13.92
2022-11-16T19:42:56.321Z,11.67
2022-11-16T19:48:02.441Z,10.82
2022-11-16T19:53:08.649Z,9.81
2022-11-16T19:58:14.831Z,9.56
2022-11-16T20:03:21.032Z,13.69
2022-11-16T20:08:27.178Z,14.36
2022-11-16T20:13:34.004Z,10.73
2022-11-16T20:18:39.838Z,9.13
2022-11-16T20:23:46.062Z,10.88
2022-11-16T20:28:52.252Z,9.68
2022-11-16T20:33:58.411Z,9.32
2022-11-16T20:39:04.566Z,10.37
2022-11-16T20:44:15.020Z,9.25
2022-11-16T20:49:17.328Z,8.86
2022-11-16T20:54:23.550Z,9.78
2022-11-16T20:59:29.691Z,9.26
2022-11-16T21:04:36.337Z,7.17
2022-11-16T21:09:42.728Z,7.38
2022-11-16T21:14:48.970Z,9.40
2022-11-16T21:20:25.423Z,7.12
2022-11-16T21:25:01.013Z,6.62
2022-11-16T21:30:07.074Z,7.58
2022-11-16T21:35:13.288Z,6.36
2022-11-16T21:40:19.435Z,6.35
2022-11-16T21:45:25.650Z,5.45
2022-11-16T21:50:32.454Z,5.15
2022-11-16T21:55:37.501Z,5.14
2022-11-16T22:00:43.662Z,5.81
2022-11-16T22:05:49.862Z,6.72
2022-11-16T22:10:55.916Z,6.18
2022-11-16T22:16:02.397Z,6.20
2022-11-16T22:21:08.473Z,6.02
2022-11-16T22:26:14.765Z,5.96
2022-11-16T22:31:36.910Z,5.72
2022-11-16T22:36:43.080Z,5.59
2022-11-16T22:41:49.179Z,5.80
2022-11-16T22:46:55.505Z,5.84
2022-11-16T22:52:01.599Z,6.52
2022-11-16T22:57:07.837Z,6.33
2022-11-16T23:02:13.917Z,6.12
2022-11-16T23:07:20.263Z,5.88
2022-11-16T23:12:26.672Z,6.86
2022-11-16T23:17:32.975Z,5.93
2022-11-16T23:22:39.036Z,6.16
2022-11-16T23:27:45.282Z,5.90
2022-11-16T23:32:51.360Z,6.53
2022-11-16T23:37:57.512Z,6.27
2022-11-16T23:43:04.464Z,6.59
2022-11-16T23:48:10.648Z,5.51
2022-11-16T23:53:16.750Z,5.87
2022-11-16T23:58:23.058Z,5.49
